sensor_id;sensor_type;location;lat;lon;timestamp;pressure;altitude;pressure_sealevel;temperature;humidity
56241;BME280;42155;53.096;23.226;2023-03-13T00:00:42;99528.81;;;-3.13;68.59
56241;BME280;42155;53.096;23.226;2023-03-13T00:02:42;99526.31;;;-3.16;68.76
56241;BME280;42155;53.096;23.226;2023-03-13T00:04:43;99523.84;;;-3.19;68.80
56241;BME280;42155;53.096;23.226;2023-03-13T00:06:43;99523.00;;;-3.21;69.18
56241;BME280;42155;53.096;23.226;2023-03-13T00:08:44;99507.81;;;-3.33;68.80
56241;BME280;42155;53.096;23.226;2023-03-13T00:10:44;99526.59;;;-3.25;68.66
56241;BME280;42155;53.096;23.226;2023-03-13T00:12:44;99522.44;;;-3.30;69.01
56241;BME280;42155;53.096;23.226;2023-03-13T00:14:45;99519.09;;;-3.34;68.54
56241;BME280;42155;53.096;23.226;2023-03-13T00:16:46;99510.75;;;-3.44;69.05
56241;BME280;42155;53.096;23.226;2023-03-13T00:18:48;99517.50;;;-3.38;68.83
56241;BME280;42155;53.096;23.226;2023-03-13T00:20:57;99522.78;;;-3.41;69.34
56241;BME280;42155;53.096;23.226;2023-03-13T00:22:57;99522.13;;;-3.48;69.33
56241;BME280;42155;53.096;23.226;2023-03-13T00:24:57;99509.47;;;-3.59;69.07
56241;BME280;42155;53.096;23.226;2023-03-13T00:26:58;99513.97;;;-3.64;69.28
56241;BME280;42155;53.096;23.226;2023-03-13T00:28:58;99519.16;;;-3.65;69.71
56241;BME280;42155;53.096;23.226;2023-03-13T00:33:05;99499.72;;;-3.80;69.57
56241;BME280;42155;53.096;23.226;2023-03-13T00:35:05;99481.25;;;-3.97;69.31
56241;BME280;42155;53.096;23.226;2023-03-13T00:37:05;99510.22;;;-3.83;69.81
56241;BME280;42155;53.096;23.226;2023-03-13T00:39:06;99503.31;;;-3.84;69.29
56241;BME280;42155;53.096;23.226;2023-03-13T00:41:14;99511.13;;;-3.86;69.45
56241;BME280;42155;53.096;23.226;2023-03-13T00:43:15;99506.03;;;-3.89;69.98
56241;BME280;42155;53.096;23.226;2023-03-13T00:45:15;99486.72;;;-4.06;69.71
56241;BME280;42155;53.096;23.226;2023-03-13T00:47:16;99507.06;;;-3.94;69.63
56241;BME280;42155;53.096;23.226;2023-03-13T00:49:16;99483.22;;;-4.05;69.72
56241;BME280;42155;53.096;23.226;2023-03-13T00:51:18;99483.28;;;-4.08;69.53
56241;BME280;42155;53.096;23.226;2023-03-13T00:53:19;99472.28;;;-4.17;69.65
56241;BME280;42155;53.096;23.226;2023-03-13T00:55:20;99498.84;;;-4.08;69.83
56241;BME280;42155;53.096;23.226;2023-03-13T00:57:20;99481.78;;;-4.16;69.40
56241;BME280;42155;53.096;23.226;2023-03-13T00:59:20;99488.41;;;-4.07;69.69
56241;BME280;42155;53.096;23.226;2023-03-13T01:01:25;99491.88;;;-4.06;69.47
56241;BME280;42155;53.096;23.226;2023-03-13T01:03:26;99457.81;;;-4.24;69.72
56241;BME280;42155;53.096;23.226;2023-03-13T01:05:26;99484.13;;;-4.06;69.58
56241;BME280;42155;53.096;23.226;2023-03-13T01:07:28;99494.47;;;-4.06;69.35
56241;BME280;42155;53.096;23.226;2023-03-13T01:09:28;99491.13;;;-4.12;69.58
56241;BME280;42155;53.096;23.226;2023-03-13T01:11:31;99501.50;;;-4.12;70.14
56241;BME280;42155;53.096;23.226;2023-03-13T01:13:32;99495.47;;;-4.12;69.28
56241;BME280;42155;53.096;23.226;2023-03-13T01:15:34;99490.09;;;-4.04;69.62
56241;BME280;42155;53.096;23.226;2023-03-13T01:17:34;99420.25;;;-4.39;69.85
56241;BME280;42155;53.096;23.226;2023-03-13T01:19:34;99505.69;;;-3.76;69.85
56241;BME280;42155;53.096;23.226;2023-03-13T01:21:35;99495.03;;;-3.67;69.63
56241;BME280;42155;53.096;23.226;2023-03-13T01:23:35;99478.84;;;-3.74;69.64
56241;BME280;42155;53.096;23.226;2023-03-13T01:25:36;99496.66;;;-3.63;69.60
56241;BME280;42155;53.096;23.226;2023-03-13T01:27:37;99492.22;;;-3.60;70.07
56241;BME280;42155;53.096;23.226;2023-03-13T01:29:37;99487.03;;;-3.60;70.10
56241;BME280;42155;53.096;23.226;2023-03-13T01:31:38;99460.44;;;-3.66;69.75
56241;BME280;42155;53.096;23.226;2023-03-13T01:33:38;99469.69;;;-3.58;70.54
56241;BME280;42155;53.096;23.226;2023-03-13T01:35:38;99456.09;;;-3.66;70.52
56241;BME280;42155;53.096;23.226;2023-03-13T01:37:39;99444.84;;;-3.65;70.44
56241;BME280;42155;53.096;23.226;2023-03-13T01:39:40;99486.34;;;-3.38;70.38
56241;BME280;42155;53.096;23.226;2023-03-13T01:41:40;99479.28;;;-3.33;70.25
56241;BME280;42155;53.096;23.226;2023-03-13T01:43:40;99479.13;;;-3.28;70.33
56241;BME280;42155;53.096;23.226;2023-03-13T01:47:50;99484.84;;;-3.17;70.59
56241;BME280;42155;53.096;23.226;2023-03-13T01:49:51;99488.19;;;-3.14;70.23
56241;BME280;42155;53.096;23.226;2023-03-13T01:52:04;99488.91;;;-3.10;70.53
56241;BME280;42155;53.096;23.226;2023-03-13T01:56:10;99463.13;;;-3.15;70.61
56241;BME280;42155;53.096;23.226;2023-03-13T01:58:12;99464.72;;;-3.11;70.27
56241;BME280;42155;53.096;23.226;2023-03-13T02:00:16;99470.56;;;-3.04;70.37
56241;BME280;42155;53.096;23.226;2023-03-13T02:02:17;99444.91;;;-3.13;70.85
56241;BME280;42155;53.096;23.226;2023-03-13T02:04:19;99460.66;;;-2.93;70.85
56241;BME280;42155;53.096;23.226;2023-03-13T02:06:21;99427.19;;;-3.00;70.62
56241;BME280;42155;53.096;23.226;2023-03-13T02:08:25;99446.31;;;-2.78;70.86
56241;BME280;42155;53.096;23.226;2023-03-13T02:10:30;99448.66;;;-2.70;70.96
56241;BME280;42155;53.096;23.226;2023-03-13T02:12:36;99454.47;;;-2.64;70.48
56241;BME280;42155;53.096;23.226;2023-03-13T02:14:38;99430.63;;;-2.75;70.41
56241;BME280;42155;53.096;23.226;2023-03-13T02:16:40;99450.00;;;-2.59;70.79
56241;BME280;42155;53.096;23.226;2023-03-13T02:18:41;99436.41;;;-2.67;70.98
56241;BME280;42155;53.096;23.226;2023-03-13T02:20:42;99457.56;;;-2.52;71.04
56241;BME280;42155;53.096;23.226;2023-03-13T02:23:38;99462.53;;;-2.46;70.98
56241;BME280;42155;53.096;23.226;2023-03-13T02:27:42;99461.59;;;-2.44;71.00
56241;BME280;42155;53.096;23.226;2023-03-13T02:29:44;99470.91;;;-2.38;70.62
56241;BME280;42155;53.096;23.226;2023-03-13T02:31:48;99463.78;;;-2.33;71.36
56241;BME280;42155;53.096;23.226;2023-03-13T02:33:49;99439.16;;;-2.46;70.92
56241;BME280;42155;53.096;23.226;2023-03-13T02:35:50;99451.47;;;-2.28;71.26
56241;BME280;42155;53.096;23.226;2023-03-13T02:37:57;99464.81;;;-2.14;71.47
56241;BME280;42155;53.096;23.226;2023-03-13T02:40:01;99461.13;;;-2.08;71.46
56241;BME280;42155;53.096;23.226;2023-03-13T02:42:02;99457.50;;;-2.02;71.36
56241;BME280;42155;53.096;23.226;2023-03-13T02:44:03;99467.88;;;-2.02;71.35
56241;BME280;42155;53.096;23.226;2023-03-13T02:48:06;99460.53;;;-1.91;71.29
56241;BME280;42155;53.096;23.226;2023-03-13T02:50:07;99457.81;;;-1.88;71.29
56241;BME280;42155;53.096;23.226;2023-03-13T02:52:13;99452.63;;;-1.88;71.50
56241;BME280;42155;53.096;23.226;2023-03-13T02:54:27;99463.69;;;-1.83;71.31
56241;BME280;42155;53.096;23.226;2023-03-13T02:56:32;99446.41;;;-1.84;71.38
56241;BME280;42155;53.096;23.226;2023-03-13T02:58:43;99458.47;;;-1.83;71.48
56241;BME280;42155;53.096;23.226;2023-03-13T03:00:44;99448.09;;;-1.83;71.70
56241;BME280;42155;53.096;23.226;2023-03-13T03:02:44;99450.69;;;-1.83;71.52
56241;BME280;42155;53.096;23.226;2023-03-13T03:04:45;99383.06;;;-2.28;71.42
56241;BME280;42155;53.096;23.226;2023-03-13T03:06:45;99453.53;;;-1.89;71.36
56241;BME280;42155;53.096;23.226;2023-03-13T03:08:46;99428.16;;;-2.06;71.24
56241;BME280;42155;53.096;23.226;2023-03-13T03:10:46;99466.38;;;-1.86;71.88
56241;BME280;42155;53.096;23.226;2023-03-13T03:12:46;99465.63;;;-1.88;71.52
56241;BME280;42155;53.096;23.226;2023-03-13T03:14:47;99461.25;;;-1.88;71.48
56241;BME280;42155;53.096;23.226;2023-03-13T03:16:47;99459.56;;;-1.89;71.94
56241;BME280;42155;53.096;23.226;2023-03-13T03:18:48;99450.13;;;-1.91;71.64
56241;BME280;42155;53.096;23.226;2023-03-13T03:20:48;99433.91;;;-1.98;71.90
56241;BME280;42155;53.096;23.226;2023-03-13T03:22:48;99435.66;;;-1.98;72.04
56241;BME280;42155;53.096;23.226;2023-03-13T03:24:48;99449.28;;;-1.92;71.79
56241;BME280;42155;53.096;23.226;2023-03-13T03:26:49;99435.44;;;-1.92;71.55
56241;BME280;42155;53.096;23.226;2023-03-13T03:28:49;99397.38;;;-2.17;71.80
56241;BME280;42155;53.096;23.226;2023-03-13T03:30:50;99429.31;;;-1.91;72.31
56241;BME280;42155;53.096;23.226;2023-03-13T03:32:50;99421.50;;;-1.91;72.26
56241;BME280;42155;53.096;23.226;2023-03-13T03:34:51;99427.63;;;-1.92;72.19
56241;BME280;42155;53.096;23.226;2023-03-13T03:36:51;99429.22;;;-1.88;71.73
56241;BME280;42155;53.096;23.226;2023-03-13T03:38:51;99418.81;;;-1.88;72.31
56241;BME280;42155;53.096;23.226;2023-03-13T03:40:52;99416.13;;;-1.87;71.84
56241;BME280;42155;53.096;23.226;2023-03-13T03:42:52;99412.63;;;-1.86;72.38
56241;BME280;42155;53.096;23.226;2023-03-13T03:44:53;99415.19;;;-1.84;72.17
56241;BME280;42155;53.096;23.226;2023-03-13T03:46:53;99393.75;;;-1.91;72.29
56241;BME280;42155;53.096;23.226;2023-03-13T03:48:53;99398.78;;;-1.86;71.69
56241;BME280;42155;53.096;23.226;2023-03-13T03:50:54;99396.25;;;-1.88;71.71
56241;BME280;42155;53.096;23.226;2023-03-13T03:52:54;99411.41;;;-1.77;72.49
56241;BME280;42155;53.096;23.226;2023-03-13T03:54:55;99367.50;;;-2.07;72.47
56241;BME280;42155;53.096;23.226;2023-03-13T03:56:55;99410.56;;;-1.77;71.86
56241;BME280;42155;53.096;23.226;2023-03-13T03:58:55;99412.81;;;-1.68;71.86
56241;BME280;42155;53.096;23.226;2023-03-13T04:00:56;99390.75;;;-1.80;71.85
56241;BME280;42155;53.096;23.226;2023-03-13T04:02:57;99406.31;;;-1.57;72.23
56241;BME280;42155;53.096;23.226;2023-03-13T04:04:57;99407.06;;;-1.55;71.91
56241;BME280;42155;53.096;23.226;2023-03-13T04:06:57;99382.53;;;-1.69;71.77
56241;BME280;42155;53.096;23.226;2023-03-13T04:08:58;99365.22;;;-1.70;72.00
56241;BME280;42155;53.096;23.226;2023-03-13T04:11:01;99414.41;;;-1.42;72.35
56241;BME280;42155;53.096;23.226;2023-03-13T04:13:02;99418.56;;;-1.38;71.90
56241;BME280;42155;53.096;23.226;2023-03-13T04:15:03;99404.75;;;-1.40;71.78
56241;BME280;42155;53.096;23.226;2023-03-13T04:17:03;99415.78;;;-1.34;71.57
56241;BME280;42155;53.096;23.226;2023-03-13T04:19:03;99392.78;;;-1.44;72.11
56241;BME280;42155;53.096;23.226;2023-03-13T04:21:04;99414.69;;;-1.28;71.69
56241;BME280;42155;53.096;23.226;2023-03-13T04:23:05;99409.47;;;-1.28;71.60
56241;BME280;42155;53.096;23.226;2023-03-13T04:25:05;99412.91;;;-1.27;71.93
56241;BME280;42155;53.096;23.226;2023-03-13T04:27:06;99404.38;;;-1.31;71.90
56241;BME280;42155;53.096;23.226;2023-03-13T04:29:06;99410.06;;;-1.21;72.34
56241;BME280;42155;53.096;23.226;2023-03-13T04:31:07;99386.88;;;-1.27;72.25
56241;BME280;42155;53.096;23.226;2023-03-13T04:33:07;99397.78;;;-1.18;72.21
56241;BME280;42155;53.096;23.226;2023-03-13T04:35:07;99396.72;;;-1.14;71.76
56241;BME280;42155;53.096;23.226;2023-03-13T04:37:08;99379.81;;;-1.24;72.25
56241;BME280;42155;53.096;23.226;2023-03-13T04:39:08;99403.34;;;-1.07;71.71
56241;BME280;42155;53.096;23.226;2023-03-13T04:41:09;99400.63;;;-1.04;72.03
56241;BME280;42155;53.096;23.226;2023-03-13T04:43:09;99403.91;;;-0.98;72.33
56241;BME280;42155;53.096;23.226;2023-03-13T04:45:11;99362.34;;;-1.22;72.03
56241;BME280;42155;53.096;23.226;2023-03-13T04:47:11;99375.59;;;-1.06;71.70
56241;BME280;42155;53.096;23.226;2023-03-13T04:49:12;99409.50;;;-0.87;72.10
56241;BME280;42155;53.096;23.226;2023-03-13T04:51:12;99365.75;;;-1.20;71.93
56241;BME280;42155;53.096;23.226;2023-03-13T04:53:13;99410.91;;;-0.80;71.84
56241;BME280;42155;53.096;23.226;2023-03-13T04:55:13;99409.03;;;-0.77;72.16
56241;BME280;42155;53.096;23.226;2023-03-13T04:57:14;99408.84;;;-0.72;72.12
56241;BME280;42155;53.096;23.226;2023-03-13T04:59:14;99408.72;;;-0.69;71.69
56241;BME280;42155;53.096;23.226;2023-03-13T05:01:15;99399.97;;;-0.68;72.16
56241;BME280;42155;53.096;23.226;2023-03-13T05:03:15;99330.59;;;-1.10;72.29
56241;BME280;42155;53.096;23.226;2023-03-13T05:05:15;99401.28;;;-0.58;72.38
56241;BME280;42155;53.096;23.226;2023-03-13T05:07:16;99408.16;;;-0.57;72.40
56241;BME280;42155;53.096;23.226;2023-03-13T05:09:16;99397.50;;;-0.50;71.64
56241;BME280;42155;53.096;23.226;2023-03-13T05:11:17;99363.50;;;-0.68;71.65
56241;BME280;42155;53.096;23.226;2023-03-13T05:13:17;99393.69;;;-0.43;72.09
56241;BME280;42155;53.096;23.226;2023-03-13T05:15:17;99381.56;;;-0.44;72.02
56241;BME280;42155;53.096;23.226;2023-03-13T05:17:18;99393.41;;;-0.37;71.86
56241;BME280;42155;53.096;23.226;2023-03-13T05:19:18;99382.84;;;-0.34;71.80
56241;BME280;42155;53.096;23.226;2023-03-13T05:21:18;99387.84;;;-0.30;71.78
56241;BME280;42155;53.096;23.226;2023-03-13T05:23:19;99374.72;;;-0.28;71.72
56241;BME280;42155;53.096;23.226;2023-03-13T05:25:19;99378.91;;;-0.24;71.80
56241;BME280;42155;53.096;23.226;2023-03-13T05:27:20;99391.59;;;-0.16;71.60
56241;BME280;42155;53.096;23.226;2023-03-13T05:29:20;99381.78;;;-0.11;72.11
56241;BME280;42155;53.096;23.226;2023-03-13T05:31:21;99383.44;;;-0.09;71.66
56241;BME280;42155;53.096;23.226;2023-03-13T05:33:21;99364.38;;;-0.11;71.78
56241;BME280;42155;53.096;23.226;2023-03-13T05:35:21;99365.00;;;-0.06;72.12
56241;BME280;42155;53.096;23.226;2023-03-13T05:37:22;99372.69;;;-0.03;71.51
56241;BME280;42155;53.096;23.226;2023-03-13T05:39:22;99369.88;;;0.02;72.23
56241;BME280;42155;53.096;23.226;2023-03-13T05:41:22;99363.66;;;0.05;71.87
56241;BME280;42155;53.096;23.226;2023-03-13T05:43:23;99365.22;;;0.09;72.11
56241;BME280;42155;53.096;23.226;2023-03-13T05:45:23;99359.84;;;0.12;71.56
56241;BME280;42155;53.096;23.226;2023-03-13T05:47:23;99356.31;;;0.13;71.66
56241;BME280;42155;53.096;23.226;2023-03-13T05:49:24;99360.19;;;0.23;71.48
56241;BME280;42155;53.096;23.226;2023-03-13T05:51:24;99339.81;;;0.12;71.76
56241;BME280;42155;53.096;23.226;2023-03-13T05:53:24;99274.78;;;-0.27;71.44
56241;BME280;42155;53.096;23.226;2023-03-13T05:55:25;99361.44;;;0.33;72.09
56241;BME280;42155;53.096;23.226;2023-03-13T05:57:25;99355.31;;;0.34;71.90
56241;BME280;42155;53.096;23.226;2023-03-13T05:59:25;99350.09;;;0.34;71.78
56241;BME280;42155;53.096;23.226;2023-03-13T06:01:26;99363.63;;;0.42;71.30
56241;BME280;42155;53.096;23.226;2023-03-13T06:03:26;99356.47;;;0.46;71.21
56241;BME280;42155;53.096;23.226;2023-03-13T06:05:26;99358.94;;;0.49;71.90
56241;BME280;42155;53.096;23.226;2023-03-13T06:07:27;99357.94;;;0.52;71.32
56241;BME280;42155;53.096;23.226;2023-03-13T06:09:27;99349.31;;;0.49;71.46
56241;BME280;42155;53.096;23.226;2023-03-13T06:11:27;99339.59;;;0.53;71.72
56241;BME280;42155;53.096;23.226;2023-03-13T06:13:28;99350.56;;;0.60;71.86
56241;BME280;42155;53.096;23.226;2023-03-13T06:15:28;99348.75;;;0.62;71.82
56241;BME280;42155;53.096;23.226;2023-03-13T06:17:28;99352.19;;;0.62;71.83
56241;BME280;42155;53.096;23.226;2023-03-13T06:19:29;99349.56;;;0.62;71.41
56241;BME280;42155;53.096;23.226;2023-03-13T06:21:29;99336.06;;;0.54;71.75
56241;BME280;42155;53.096;23.226;2023-03-13T06:23:30;99353.66;;;0.68;71.14
56241;BME280;42155;53.096;23.226;2023-03-13T06:25:30;99348.41;;;0.68;71.34
56241;BME280;42155;53.096;23.226;2023-03-13T06:27:30;99333.06;;;0.62;71.89
56241;BME280;42155;53.096;23.226;2023-03-13T06:29:31;99336.69;;;0.76;71.46
56241;BME280;42155;53.096;23.226;2023-03-13T06:31:31;99340.75;;;0.82;71.65
56241;BME280;42155;53.096;23.226;2023-03-13T06:33:32;99340.50;;;0.87;71.21
56241;BME280;42155;53.096;23.226;2023-03-13T06:35:32;99339.44;;;0.91;71.74
56241;BME280;42155;53.096;23.226;2023-03-13T06:37:33;99319.69;;;0.85;71.02
56241;BME280;42155;53.096;23.226;2023-03-13T06:39:33;99331.97;;;1.00;71.17
56241;BME280;42155;53.096;23.226;2023-03-13T06:41:34;99293.56;;;0.85;71.41
56241;BME280;42155;53.096;23.226;2023-03-13T06:43:34;99282.34;;;0.83;71.38
56241;BME280;42155;53.096;23.226;2023-03-13T06:45:35;99331.09;;;1.17;71.51
56241;BME280;42155;53.096;23.226;2023-03-13T06:47:36;99325.63;;;1.22;71.01
56241;BME280;42155;53.096;23.226;2023-03-13T06:49:36;99320.03;;;1.30;71.24
56241;BME280;42155;53.096;23.226;2023-03-13T06:51:36;99316.97;;;1.37;71.42
56241;BME280;42155;53.096;23.226;2023-03-13T06:53:37;99305.34;;;1.43;71.11
56241;BME280;42155;53.096;23.226;2023-03-13T06:55:37;99304.00;;;1.51;70.90
56241;BME280;42155;53.096;23.226;2023-03-13T06:57:37;99316.88;;;1.72;70.95
56241;BME280;42155;53.096;23.226;2023-03-13T06:59:38;99304.63;;;1.88;70.32
56241;BME280;42155;53.096;23.226;2023-03-13T07:01:38;99301.50;;;1.97;70.62
56241;BME280;42155;53.096;23.226;2023-03-13T07:03:39;99302.66;;;2.08;69.96
56241;BME280;42155;53.096;23.226;2023-03-13T07:05:40;99291.66;;;2.17;69.66
56241;BME280;42155;53.096;23.226;2023-03-13T07:07:40;99297.41;;;2.23;69.78
56241;BME280;42155;53.096;23.226;2023-03-13T07:09:41;99306.69;;;2.29;70.04
56241;BME280;42155;53.096;23.226;2023-03-13T07:11:41;99277.78;;;2.30;69.66
56241;BME280;42155;53.096;23.226;2023-03-13T07:13:41;99297.22;;;2.42;69.54
56241;BME280;42155;53.096;23.226;2023-03-13T07:15:42;99247.59;;;2.25;69.51
56241;BME280;42155;53.096;23.226;2023-03-13T07:17:42;99286.66;;;2.58;69.52
56241;BME280;42155;53.096;23.226;2023-03-13T07:19:42;99295.88;;;2.65;69.75
56241;BME280;42155;53.096;23.226;2023-03-13T07:21:43;99265.25;;;2.51;69.08
56241;BME280;42155;53.096;23.226;2023-03-13T07:23:44;99274.16;;;2.63;69.73
56241;BME280;42155;53.096;23.226;2023-03-13T07:25:52;99254.06;;;2.64;69.64
56241;BME280;42155;53.096;23.226;2023-03-13T07:27:52;99273.31;;;2.77;69.41
56241;BME280;42155;53.096;23.226;2023-03-13T07:29:52;99265.28;;;2.80;69.33
56241;BME280;42155;53.096;23.226;2023-03-13T07:31:53;99245.84;;;2.84;69.41
56241;BME280;42155;53.096;23.226;2023-03-13T07:33:53;99258.28;;;2.95;68.58
56241;BME280;42155;53.096;23.226;2023-03-13T07:35:53;99242.66;;;2.93;68.86
56241;BME280;42155;53.096;23.226;2023-03-13T07:37:54;99243.22;;;2.98;68.34
56241;BME280;42155;53.096;23.226;2023-03-13T07:39:54;99243.06;;;3.01;68.80
56241;BME280;42155;53.096;23.226;2023-03-13T07:41:54;99259.50;;;3.03;68.07
56241;BME280;42155;53.096;23.226;2023-03-13T07:43:55;99246.69;;;3.13;68.05
56241;BME280;42155;53.096;23.226;2023-03-13T07:46:15;99254.09;;;3.21;68.66
56241;BME280;42155;53.096;23.226;2023-03-13T07:48:16;99251.28;;;3.24;68.03
56241;BME280;42155;53.096;23.226;2023-03-13T07:50:16;99243.59;;;3.21;68.46
56241;BME280;42155;53.096;23.226;2023-03-13T07:52:17;99253.03;;;3.23;67.84
56241;BME280;42155;53.096;23.226;2023-03-13T07:54:17;99244.88;;;3.28;68.10
56241;BME280;42155;53.096;23.226;2023-03-13T07:56:20;99249.50;;;3.24;68.25
56241;BME280;42155;53.096;23.226;2023-03-13T07:58:21;99250.13;;;3.28;68.19
56241;BME280;42155;53.096;23.226;2023-03-13T08:00:22;99241.34;;;3.29;67.82
56241;BME280;42155;53.096;23.226;2023-03-13T08:02:22;99217.56;;;3.18;68.18
56241;BME280;42155;53.096;23.226;2023-03-13T08:04:22;99236.38;;;3.39;68.19
56241;BME280;42155;53.096;23.226;2023-03-13T08:06:24;99232.53;;;3.44;67.58
56241;BME280;42155;53.096;23.226;2023-03-13T08:08:25;99219.78;;;3.52;67.37
56241;BME280;42155;53.096;23.226;2023-03-13T08:10:25;99217.81;;;3.56;67.59
56241;BME280;42155;53.096;23.226;2023-03-13T08:12:26;99219.72;;;3.67;67.71
56241;BME280;42155;53.096;23.226;2023-03-13T08:14:26;99212.59;;;3.69;67.63
56241;BME280;42155;53.096;23.226;2023-03-13T08:16:31;99216.69;;;3.73;67.45
56241;BME280;42155;53.096;23.226;2023-03-13T08:18:32;99206.66;;;3.79;67.08
56241;BME280;42155;53.096;23.226;2023-03-13T08:20:33;99158.97;;;3.46;66.73
56241;BME280;42155;53.096;23.226;2023-03-13T08:22:33;99220.81;;;3.77;66.76
56241;BME280;42155;53.096;23.226;2023-03-13T08:24:33;99212.41;;;3.72;67.37
56241;BME280;42155;53.096;23.226;2023-03-13T08:26:36;99204.00;;;3.67;67.52
56241;BME280;42155;53.096;23.226;2023-03-13T08:28:37;99207.31;;;3.56;67.30
56241;BME280;42155;53.096;23.226;2023-03-13T08:30:38;99196.34;;;3.49;67.82
56241;BME280;42155;53.096;23.226;2023-03-13T08:32:38;99211.34;;;3.47;67.89
56241;BME280;42155;53.096;23.226;2023-03-13T08:34:39;99214.16;;;3.44;67.49
56241;BME280;42155;53.096;23.226;2023-03-13T08:36:39;99182.72;;;3.30;67.48
56241;BME280;42155;53.096;23.226;2023-03-13T08:38:40;99207.59;;;3.51;68.03
56241;BME280;42155;53.096;23.226;2023-03-13T08:40:40;99210.00;;;3.54;68.15
56241;BME280;42155;53.096;23.226;2023-03-13T08:42:41;99208.16;;;3.56;68.21
56241;BME280;42155;53.096;23.226;2023-03-13T08:44:41;99202.78;;;3.58;68.22
56241;BME280;42155;53.096;23.226;2023-03-13T08:46:42;99209.81;;;3.57;67.55
56241;BME280;42155;53.096;23.226;2023-03-13T08:48:42;99206.53;;;3.54;67.86
56241;BME280;42155;53.096;23.226;2023-03-13T08:50:43;99202.34;;;3.51;67.63
56241;BME280;42155;53.096;23.226;2023-03-13T08:52:44;99201.59;;;3.49;67.98
56241;BME280;42155;53.096;23.226;2023-03-13T08:54:47;99192.59;;;3.53;67.90
56241;BME280;42155;53.096;23.226;2023-03-13T08:56:47;99201.19;;;3.55;68.38
56241;BME280;42155;53.096;23.226;2023-03-13T08:58:55;99188.66;;;3.61;68.53
56241;BME280;42155;53.096;23.226;2023-03-13T09:01:10;99183.19;;;3.64;68.34
56241;BME280;42155;53.096;23.226;2023-03-13T09:03:10;99184.25;;;3.61;68.37
56241;BME280;42155;53.096;23.226;2023-03-13T09:05:10;99190.09;;;3.65;67.78
56241;BME280;42155;53.096;23.226;2023-03-13T09:07:11;99189.47;;;3.61;68.61
56241;BME280;42155;53.096;23.226;2023-03-13T09:09:11;99187.69;;;3.62;68.36
56241;BME280;42155;53.096;23.226;2023-03-13T09:11:15;99187.78;;;3.60;68.70
56241;BME280;42155;53.096;23.226;2023-03-13T09:13:15;99187.78;;;3.60;68.67
56241;BME280;42155;53.096;23.226;2023-03-13T09:15:16;99160.22;;;3.40;68.41
56241;BME280;42155;53.096;23.226;2023-03-13T09:17:16;99190.69;;;3.55;68.96
56241;BME280;42155;53.096;23.226;2023-03-13T09:19:16;99178.34;;;3.57;69.13
56241;BME280;42155;53.096;23.226;2023-03-13T09:21:21;99118.78;;;3.18;68.96
56241;BME280;42155;53.096;23.226;2023-03-13T09:23:22;99173.09;;;3.57;68.63
56241;BME280;42155;53.096;23.226;2023-03-13T09:25:23;99166.34;;;3.53;69.00
56241;BME280;42155;53.096;23.226;2023-03-13T09:27:23;99153.94;;;3.43;68.92
56241;BME280;42155;53.096;23.226;2023-03-13T09:29:23;99169.16;;;3.50;69.37
56241;BME280;42155;53.096;23.226;2023-03-13T09:31:29;99163.84;;;3.52;70.21
56241;BME280;42155;53.096;23.226;2023-03-13T09:33:30;99133.16;;;3.40;70.08
56241;BME280;42155;53.096;23.226;2023-03-13T09:35:30;99142.03;;;3.51;70.07
56241;BME280;42155;53.096;23.226;2023-03-13T09:37:30;99143.28;;;3.58;69.88
56241;BME280;42155;53.096;23.226;2023-03-13T09:39:31;99141.44;;;3.61;70.82
56241;BME280;42155;53.096;23.226;2023-03-13T09:48:44;99142.09;;;3.77;70.21
56241;BME280;42155;53.096;23.226;2023-03-13T09:51:37;99141.25;;;3.76;70.58
56241;BME280;42155;53.096;23.226;2023-03-13T09:53:14;99133.50;;;3.75;70.84
56241;BME280;42155;53.096;23.226;2023-03-13T09:55:39;99138.50;;;3.78;70.54
56241;BME280;42155;53.096;23.226;2023-03-13T09:58:14;99140.00;;;3.82;70.99
56241;BME280;42155;53.096;23.226;2023-03-13T10:00:18;99137.25;;;3.83;71.19
56241;BME280;42155;53.096;23.226;2023-03-13T10:02:22;99146.72;;;3.86;71.26
56241;BME280;42155;53.096;23.226;2023-03-13T10:04:28;99063.34;;;3.37;70.93
56241;BME280;42155;53.096;23.226;2023-03-13T10:06:37;99119.72;;;3.71;71.55
56241;BME280;42155;53.096;23.226;2023-03-13T10:08:40;99124.84;;;3.73;71.60
56241;BME280;42155;53.096;23.226;2023-03-13T10:10:49;99141.47;;;3.86;71.16
56241;BME280;42155;53.096;23.226;2023-03-13T10:12:56;99140.75;;;3.84;72.00
56241;BME280;42155;53.096;23.226;2023-03-13T10:15:21;99131.94;;;3.85;72.02
56241;BME280;42155;53.096;23.226;2023-03-13T10:17:38;99134.56;;;3.85;72.64
56241;BME280;42155;53.096;23.226;2023-03-13T10:19:40;99127.81;;;3.81;71.76
56241;BME280;42155;53.096;23.226;2023-03-13T10:21:44;99134.44;;;3.87;72.44
56241;BME280;42155;53.096;23.226;2023-03-13T10:23:55;99120.69;;;3.83;72.49
56241;BME280;42155;53.096;23.226;2023-03-13T10:25:56;99123.94;;;3.87;72.14
56241;BME280;42155;53.096;23.226;2023-03-13T10:27:57;99137.09;;;3.99;72.08
56241;BME280;42155;53.096;23.226;2023-03-13T10:29:58;99104.31;;;3.92;72.77
56241;BME280;42155;53.096;23.226;2023-03-13T10:32:01;99115.47;;;3.96;72.56
56241;BME280;42155;53.096;23.226;2023-03-13T10:34:12;99124.19;;;4.09;72.33
56241;BME280;42155;53.096;23.226;2023-03-13T10:36:13;99046.56;;;3.67;72.69
56241;BME280;42155;53.096;23.226;2023-03-13T10:38:17;99115.50;;;4.21;72.09
56241;BME280;42155;53.096;23.226;2023-03-13T10:40:24;99109.00;;;4.27;72.60
56241;BME280;42155;53.096;23.226;2023-03-13T10:42:31;99115.91;;;4.28;72.14
56241;BME280;42155;53.096;23.226;2023-03-13T10:44:33;99105.63;;;4.25;72.52
56241;BME280;42155;53.096;23.226;2023-03-13T10:46:34;99099.44;;;4.13;72.96
56241;BME280;42155;53.096;23.226;2023-03-13T10:48:39;99107.19;;;4.15;72.72
56241;BME280;42155;53.096;23.226;2023-03-13T10:50:44;99096.69;;;4.15;73.17
56241;BME280;42155;53.096;23.226;2023-03-13T10:52:46;99097.53;;;4.15;73.71
56241;BME280;42155;53.096;23.226;2023-03-13T10:54:47;99094.59;;;4.20;73.66
56241;BME280;42155;53.096;23.226;2023-03-13T10:56:48;99097.84;;;4.23;73.77
56241;BME280;42155;53.096;23.226;2023-03-13T10:58:51;99060.78;;;4.02;73.58